sensor_id;sensor_type;location;lat;lon;timestamp;temperature;humidity
16744;DHT22;71724;-33.900;151.182;2023-12-20T00:00:00;19.00;90.80
16744;DHT22;71724;-33.900;151.182;2023-12-20T00:02:28;19.00;90.70
16744;DHT22;71724;-33.900;151.182;2023-12-20T00:04:55;18.90;90.70
16744;DHT22;71724;-33.900;151.182;2023-12-20T00:07:22;18.90;90.80
16744;DHT22;71724;-33.900;151.182;2023-12-20T00:09:50;19.00;90.80
16744;DHT22;71724;-33.900;151.182;2023-12-20T00:12:17;18.90;90.70
16744;DHT22;71724;-33.900;151.182;2023-12-20T00:14:44;18.90;90.70
16744;DHT22;71724;-33.900;151.182;2023-12-20T00:17:12;19.00;90.90
16744;DHT22;71724;-33.900;151.182;2023-12-20T00:19:40;19.00;90.80
16744;DHT22;71724;-33.900;151.182;2023-12-20T00:22:07;19.00;90.90
16744;DHT22;71724;-33.900;151.182;2023-12-20T00:24:34;19.10;91.10
16744;DHT22;71724;-33.900;151.182;2023-12-20T00:27:02;19.00;90.80
16744;DHT22;71724;-33.900;151.182;2023-12-20T00:29:29;19.00;90.80
16744;DHT22;71724;-33.900;151.182;2023-12-20T00:31:56;19.00;90.90
16744;DHT22;71724;-33.900;151.182;2023-12-20T00:34:24;19.00;90.80
16744;DHT22;71724;-33.900;151.182;2023-12-20T00:36:51;19.00;91.10
16744;DHT22;71724;-33.900;151.182;2023-12-20T00:39:19;19.00;90.90
16744;DHT22;71724;-33.900;151.182;2023-12-20T00:41:46;19.00;90.80
16744;DHT22;71724;-33.900;151.182;2023-12-20T00:44:13;19.00;91.00
16744;DHT22;71724;-33.900;151.182;2023-12-20T00:46:41;19.00;90.90
16744;DHT22;71724;-33.900;151.182;2023-12-20T00:49:08;19.00;91.00
16744;DHT22;71724;-33.900;151.182;2023-12-20T00:51:35;19.00;90.70
16744;DHT22;71724;-33.900;151.182;2023-12-20T00:54:03;19.00;90.80
16744;DHT22;71724;-33.900;151.182;2023-12-20T00:56:30;19.00;90.80
16744;DHT22;71724;-33.900;151.182;2023-12-20T00:58:59;18.90;90.80
16744;DHT22;71724;-33.900;151.182;2023-12-20T01:01:27;19.00;90.80
16744;DHT22;71724;-33.900;151.182;2023-12-20T01:03:55;18.90;90.80
16744;DHT22;71724;-33.900;151.182;2023-12-20T01:06:22;18.80;90.40
16744;DHT22;71724;-33.900;151.182;2023-12-20T01:08:50;18.80;90.50
16744;DHT22;71724;-33.900;151.182;2023-12-20T01:11:17;18.80;90.70
16744;DHT22;71724;-33.900;151.182;2023-12-20T01:13:44;18.80;90.50
16744;DHT22;71724;-33.900;151.182;2023-12-20T01:16:13;18.80;90.70
16744;DHT22;71724;-33.900;151.182;2023-12-20T01:18:40;18.80;90.60
16744;DHT22;71724;-33.900;151.182;2023-12-20T01:21:08;18.80;90.60
16744;DHT22;71724;-33.900;151.182;2023-12-20T01:23:35;18.80;90.50
16744;DHT22;71724;-33.900;151.182;2023-12-20T01:26:02;18.80;90.60
16744;DHT22;71724;-33.900;151.182;2023-12-20T01:28:31;18.70;90.60
16744;DHT22;71724;-33.900;151.182;2023-12-20T01:30:59;18.70;90.40
16744;DHT22;71724;-33.900;151.182;2023-12-20T01:33:26;18.70;90.20
16744;DHT22;71724;-33.900;151.182;2023-12-20T01:35:54;18.60;90.20
16744;DHT22;71724;-33.900;151.182;2023-12-20T01:38:21;18.60;90.40
16744;DHT22;71724;-33.900;151.182;2023-12-20T01:40:48;18.60;90.40
16744;DHT22;71724;-33.900;151.182;2023-12-20T01:43:16;18.60;90.50
16744;DHT22;71724;-33.900;151.182;2023-12-20T01:45:43;18.60;90.80
16744;DHT22;71724;-33.900;151.182;2023-12-20T01:48:11;18.60;90.70
16744;DHT22;71724;-33.900;151.182;2023-12-20T01:50:39;18.60;90.60
16744;DHT22;71724;-33.900;151.182;2023-12-20T01:53:08;18.60;90.50
16744;DHT22;71724;-33.900;151.182;2023-12-20T01:55:39;18.60;90.50
16744;DHT22;71724;-33.900;151.182;2023-12-20T01:58:09;18.60;90.60
16744;DHT22;71724;-33.900;151.182;2023-12-20T02:00:40;18.60;90.60
16744;DHT22;71724;-33.900;151.182;2023-12-20T02:03:07;18.60;90.70
16744;DHT22;71724;-33.900;151.182;2023-12-20T02:05:36;18.60;90.70
16744;DHT22;71724;-33.900;151.182;2023-12-20T02:08:05;18.50;90.50
16744;DHT22;71724;-33.900;151.182;2023-12-20T02:10:33;18.50;90.90
16744;DHT22;71724;-33.900;151.182;2023-12-20T02:13:01;18.70;91.00
16744;DHT22;71724;-33.900;151.182;2023-12-20T02:15:28;18.60;90.70
16744;DHT22;71724;-33.900;151.182;2023-12-20T02:17:56;18.70;91.00
16744;DHT22;71724;-33.900;151.182;2023-12-20T02:20:24;18.60;90.70
16744;DHT22;71724;-33.900;151.182;2023-12-20T02:22:51;18.70;90.80
16744;DHT22;71724;-33.900;151.182;2023-12-20T02:25:18;18.60;90.60
16744;DHT22;71724;-33.900;151.182;2023-12-20T02:27:46;18.50;90.60
16744;DHT22;71724;-33.900;151.182;2023-12-20T02:30:14;18.50;90.80
16744;DHT22;71724;-33.900;151.182;2023-12-20T02:32:41;18.50;90.60
16744;DHT22;71724;-33.900;151.182;2023-12-20T02:35:09;18.40;90.50
16744;DHT22;71724;-33.900;151.182;2023-12-20T02:37:36;18.40;90.50
16744;DHT22;71724;-33.900;151.182;2023-12-20T02:40:04;18.40;90.90
16744;DHT22;71724;-33.900;151.182;2023-12-20T02:42:31;18.40;91.00
16744;DHT22;71724;-33.900;151.182;2023-12-20T02:44:59;18.40;91.10
16744;DHT22;71724;-33.900;151.182;2023-12-20T02:47:26;18.50;91.20
16744;DHT22;71724;-33.900;151.182;2023-12-20T02:49:54;18.50;91.00
16744;DHT22;71724;-33.900;151.182;2023-12-20T02:52:22;18.50;91.00
16744;DHT22;71724;-33.900;151.182;2023-12-20T02:54:49;18.40;91.00
16744;DHT22;71724;-33.900;151.182;2023-12-20T02:57:20;18.40;90.80
16744;DHT22;71724;-33.900;151.182;2023-12-20T02:59:47;18.40;91.00
16744;DHT22;71724;-33.900;151.182;2023-12-20T03:02:16;18.40;91.00
16744;DHT22;71724;-33.900;151.182;2023-12-20T03:04:43;18.40;91.10
16744;DHT22;71724;-33.900;151.182;2023-12-20T03:07:11;18.40;91.10
16744;DHT22;71724;-33.900;151.182;2023-12-20T03:09:38;18.40;91.20
16744;DHT22;71724;-33.900;151.182;2023-12-20T03:12:08;18.30;91.10
16744;DHT22;71724;-33.900;151.182;2023-12-20T03:14:35;18.30;91.30
16744;DHT22;71724;-33.900;151.182;2023-12-20T03:17:03;18.30;91.20
16744;DHT22;71724;-33.900;151.182;2023-12-20T03:19:31;18.30;91.20
16744;DHT22;71724;-33.900;151.182;2023-12-20T03:21:58;18.40;91.30
16744;DHT22;71724;-33.900;151.182;2023-12-20T03:24:29;18.30;91.20
16744;DHT22;71724;-33.900;151.182;2023-12-20T03:26:57;18.40;91.50
16744;DHT22;71724;-33.900;151.182;2023-12-20T03:29:25;18.40;91.40
16744;DHT22;71724;-33.900;151.182;2023-12-20T03:31:53;18.40;91.40
16744;DHT22;71724;-33.900;151.182;2023-12-20T03:34:26;18.40;91.50
16744;DHT22;71724;-33.900;151.182;2023-12-20T03:37:01;18.50;91.60
16744;DHT22;71724;-33.900;151.182;2023-12-20T03:39:29;18.50;91.70
16744;DHT22;71724;-33.900;151.182;2023-12-20T03:41:56;18.50;91.50
16744;DHT22;71724;-33.900;151.182;2023-12-20T03:44:23;18.40;91.60
16744;DHT22;71724;-33.900;151.182;2023-12-20T03:46:51;18.40;91.30
16744;DHT22;71724;-33.900;151.182;2023-12-20T03:49:18;18.30;91.20
16744;DHT22;71724;-33.900;151.182;2023-12-20T03:51:46;18.20;91.10
16744;DHT22;71724;-33.900;151.182;2023-12-20T03:54:13;18.20;91.40
16744;DHT22;71724;-33.900;151.182;2023-12-20T03:56:42;18.20;91.30
16744;DHT22;71724;-33.900;151.182;2023-12-20T03:59:10;18.20;91.60
16744;DHT22;71724;-33.900;151.182;2023-12-20T04:01:38;18.20;91.50
16744;DHT22;71724;-33.900;151.182;2023-12-20T04:04:05;18.10;91.20
16744;DHT22;71724;-33.900;151.182;2023-12-20T04:06:32;18.00;91.10
16744;DHT22;71724;-33.900;151.182;2023-12-20T04:09:00;18.00;91.30
16744;DHT22;71724;-33.900;151.182;2023-12-20T04:11:27;18.00;91.50
16744;DHT22;71724;-33.900;151.182;2023-12-20T04:13:55;18.00;91.30
16744;DHT22;71724;-33.900;151.182;2023-12-20T04:16:23;17.90;91.20
16744;DHT22;71724;-33.900;151.182;2023-12-20T04:18:50;17.80;91.10
16744;DHT22;71724;-33.900;151.182;2023-12-20T04:21:18;17.80;91.40
16744;DHT22;71724;-33.900;151.182;2023-12-20T04:23:47;17.90;91.50
16744;DHT22;71724;-33.900;151.182;2023-12-20T04:26:14;17.90;91.30
16744;DHT22;71724;-33.900;151.182;2023-12-20T04:28:42;17.90;91.60
16744;DHT22;71724;-33.900;151.182;2023-12-20T04:31:09;17.90;91.70
16744;DHT22;71724;-33.900;151.182;2023-12-20T04:33:36;17.90;91.40
16744;DHT22;71724;-33.900;151.182;2023-12-20T04:36:04;17.90;91.50
16744;DHT22;71724;-33.900;151.182;2023-12-20T04:38:32;17.90;91.50
16744;DHT22;71724;-33.900;151.182;2023-12-20T04:41:00;17.90;91.60
16744;DHT22;71724;-33.900;151.182;2023-12-20T04:43:29;18.00;91.60
16744;DHT22;71724;-33.900;151.182;2023-12-20T04:45:56;18.00;91.60
16744;DHT22;71724;-33.900;151.182;2023-12-20T04:48:24;18.00;91.80
16744;DHT22;71724;-33.900;151.182;2023-12-20T04:50:52;18.10;91.70
16744;DHT22;71724;-33.900;151.182;2023-12-20T04:53:20;18.00;91.60
16744;DHT22;71724;-33.900;151.182;2023-12-20T04:55:47;18.10;91.60
16744;DHT22;71724;-33.900;151.182;2023-12-20T04:58:14;18.10;91.60
16744;DHT22;71724;-33.900;151.182;2023-12-20T05:00:42;18.10;91.40
16744;DHT22;71724;-33.900;151.182;2023-12-20T05:03:09;18.10;91.50
16744;DHT22;71724;-33.900;151.182;2023-12-20T05:05:37;18.10;91.50
16744;DHT22;71724;-33.900;151.182;2023-12-20T05:08:05;18.00;91.30
16744;DHT22;71724;-33.900;151.182;2023-12-20T05:10:32;18.00;91.30
16744;DHT22;71724;-33.900;151.182;2023-12-20T05:12:59;18.10;91.40
16744;DHT22;71724;-33.900;151.182;2023-12-20T05:15:27;18.00;91.00
16744;DHT22;71724;-33.900;151.182;2023-12-20T05:17:54;18.00;91.20
16744;DHT22;71724;-33.900;151.182;2023-12-20T05:20:22;17.90;90.90
16744;DHT22;71724;-33.900;151.182;2023-12-20T05:22:50;17.90;90.90
16744;DHT22;71724;-33.900;151.182;2023-12-20T05:25:17;17.90;91.20
16744;DHT22;71724;-33.900;151.182;2023-12-20T05:27:45;17.90;90.80
16744;DHT22;71724;-33.900;151.182;2023-12-20T05:30:13;17.90;91.00
16744;DHT22;71724;-33.900;151.182;2023-12-20T05:32:40;17.80;91.00
16744;DHT22;71724;-33.900;151.182;2023-12-20T05:35:07;17.90;91.10
16744;DHT22;71724;-33.900;151.182;2023-12-20T05:37:35;17.80;90.80
16744;DHT22;71724;-33.900;151.182;2023-12-20T05:40:02;17.80;91.10
16744;DHT22;71724;-33.900;151.182;2023-12-20T05:42:30;17.80;91.10
16744;DHT22;71724;-33.900;151.182;2023-12-20T05:44:58;17.80;91.10
16744;DHT22;71724;-33.900;151.182;2023-12-20T05:47:25;17.80;91.00
16744;DHT22;71724;-33.900;151.182;2023-12-20T05:49:52;17.90;91.30
16744;DHT22;71724;-33.900;151.182;2023-12-20T05:52:20;17.90;91.10
16744;DHT22;71724;-33.900;151.182;2023-12-20T05:54:49;17.90;91.10
16744;DHT22;71724;-33.900;151.182;2023-12-20T05:57:16;17.90;91.20
16744;DHT22;71724;-33.900;151.182;2023-12-20T05:59:44;17.80;91.20
16744;DHT22;71724;-33.900;151.182;2023-12-20T06:02:11;17.90;91.30
16744;DHT22;71724;-33.900;151.182;2023-12-20T06:04:42;17.90;90.90
16744;DHT22;71724;-33.900;151.182;2023-12-20T06:07:14;17.80;91.20
16744;DHT22;71724;-33.900;151.182;2023-12-20T06:09:41;17.80;91.00
16744;DHT22;71724;-33.900;151.182;2023-12-20T06:12:09;17.80;91.30
16744;DHT22;71724;-33.900;151.182;2023-12-20T06:14:39;17.80;91.30
16744;DHT22;71724;-33.900;151.182;2023-12-20T06:17:07;17.80;91.10
16744;DHT22;71724;-33.900;151.182;2023-12-20T06:19:34;17.80;90.90
16744;DHT22;71724;-33.900;151.182;2023-12-20T06:22:01;17.70;91.00
16744;DHT22;71724;-33.900;151.182;2023-12-20T06:24:29;17.80;91.10
16744;DHT22;71724;-33.900;151.182;2023-12-20T06:26:56;17.80;91.00
16744;DHT22;71724;-33.900;151.182;2023-12-20T06:29:44;17.70;91.00
16744;DHT22;71724;-33.900;151.182;2023-12-20T06:32:11;17.80;91.10
16744;DHT22;71724;-33.900;151.182;2023-12-20T06:34:39;17.70;91.20
16744;DHT22;71724;-33.900;151.182;2023-12-20T06:37:06;17.80;91.30
16744;DHT22;71724;-33.900;151.182;2023-12-20T06:39:33;17.70;90.90
16744;DHT22;71724;-33.900;151.182;2023-12-20T06:42:01;17.70;90.90
16744;DHT22;71724;-33.900;151.182;2023-12-20T06:44:28;17.70;91.00
16744;DHT22;71724;-33.900;151.182;2023-12-20T06:47:05;17.70;91.10
16744;DHT22;71724;-33.900;151.182;2023-12-20T06:49:41;17.70;91.10
16744;DHT22;71724;-33.900;151.182;2023-12-20T06:52:09;17.70;90.90
16744;DHT22;71724;-33.900;151.182;2023-12-20T06:54:37;17.60;91.00
16744;DHT22;71724;-33.900;151.182;2023-12-20T06:57:04;17.70;91.10
16744;DHT22;71724;-33.900;151.182;2023-12-20T06:59:31;17.60;90.80
16744;DHT22;71724;-33.900;151.182;2023-12-20T07:01:59;17.50;90.80
16744;DHT22;71724;-33.900;151.182;2023-12-20T07:04:26;17.60;91.00
16744;DHT22;71724;-33.900;151.182;2023-12-20T07:06:53;17.60;90.80
16744;DHT22;71724;-33.900;151.182;2023-12-20T07:09:23;17.60;91.10
16744;DHT22;71724;-33.900;151.182;2023-12-20T07:11:52;17.60;91.20
16744;DHT22;71724;-33.900;151.182;2023-12-20T07:14:19;17.70;91.20
16744;DHT22;71724;-33.900;151.182;2023-12-20T07:16:48;17.60;91.00
16744;DHT22;71724;-33.900;151.182;2023-12-20T07:19:15;17.60;90.70
16744;DHT22;71724;-33.900;151.182;2023-12-20T07:21:43;17.50;90.70
16744;DHT22;71724;-33.900;151.182;2023-12-20T07:24:10;17.40;90.60
16744;DHT22;71724;-33.900;151.182;2023-12-20T07:26:37;17.50;90.90
16744;DHT22;71724;-33.900;151.182;2023-12-20T07:29:06;17.50;90.80
16744;DHT22;71724;-33.900;151.182;2023-12-20T07:31:33;17.50;90.90
16744;DHT22;71724;-33.900;151.182;2023-12-20T07:34:01;17.50;91.00
16744;DHT22;71724;-33.900;151.182;2023-12-20T07:36:30;17.50;90.60
16744;DHT22;71724;-33.900;151.182;2023-12-20T07:38:58;17.50;90.70
16744;DHT22;71724;-33.900;151.182;2023-12-20T07:41:26;17.30;90.40
16744;DHT22;71724;-33.900;151.182;2023-12-20T07:43:53;17.40;90.80
16744;DHT22;71724;-33.900;151.182;2023-12-20T07:46:21;17.50;90.70
16744;DHT22;71724;-33.900;151.182;2023-12-20T07:48:56;17.50;90.70
16744;DHT22;71724;-33.900;151.182;2023-12-20T07:51:24;17.50;90.50
16744;DHT22;71724;-33.900;151.182;2023-12-20T07:53:52;17.50;90.70
16744;DHT22;71724;-33.900;151.182;2023-12-20T07:56:26;17.50;90.60
16744;DHT22;71724;-33.900;151.182;2023-12-20T07:58:56;17.50;90.60
16744;DHT22;71724;-33.900;151.182;2023-12-20T08:01:23;17.50;90.50
16744;DHT22;71724;-33.900;151.182;2023-12-20T08:03:51;17.50;90.50
16744;DHT22;71724;-33.900;151.182;2023-12-20T08:06:19;17.50;90.60
16744;DHT22;71724;-33.900;151.182;2023-12-20T08:08:46;17.50;90.60
16744;DHT22;71724;-33.900;151.182;2023-12-20T08:11:14;17.60;90.30
16744;DHT22;71724;-33.900;151.182;2023-12-20T08:13:41;17.50;90.20
16744;DHT22;71724;-33.900;151.182;2023-12-20T08:16:09;17.50;90.20
16744;DHT22;71724;-33.900;151.182;2023-12-20T08:18:40;17.50;90.30
16744;DHT22;71724;-33.900;151.182;2023-12-20T08:21:07;17.50;90.40
16744;DHT22;71724;-33.900;151.182;2023-12-20T08:23:35;17.60;90.50
16744;DHT22;71724;-33.900;151.182;2023-12-20T08:26:06;17.60;90.40
16744;DHT22;71724;-33.900;151.182;2023-12-20T08:28:41;17.70;90.60
16744;DHT22;71724;-33.900;151.182;2023-12-20T08:31:17;17.70;90.40
16744;DHT22;71724;-33.900;151.182;2023-12-20T08:33:45;17.70;90.30
16744;DHT22;71724;-33.900;151.182;2023-12-20T08:36:15;17.60;90.20
16744;DHT22;71724;-33.900;151.182;2023-12-20T08:38:44;17.60;90.10
16744;DHT22;71724;-33.900;151.182;2023-12-20T08:41:12;17.60;90.10
16744;DHT22;71724;-33.900;151.182;2023-12-20T08:43:39;17.70;90.30
16744;DHT22;71724;-33.900;151.182;2023-12-20T08:46:07;17.70;90.30
16744;DHT22;71724;-33.900;151.182;2023-12-20T08:48:36;17.70;90.20
16744;DHT22;71724;-33.900;151.182;2023-12-20T08:51:04;17.70;90.30
16744;DHT22;71724;-33.900;151.182;2023-12-20T08:53:35;17.80;90.30
16744;DHT22;71724;-33.900;151.182;2023-12-20T08:56:02;17.80;90.30
16744;DHT22;71724;-33.900;151.182;2023-12-20T08:58:32;17.80;90.20
16744;DHT22;71724;-33.900;151.182;2023-12-20T09:01:02;17.80;90.20
16744;DHT22;71724;-33.900;151.182;2023-12-20T09:03:30;17.80;89.90
16744;DHT22;71724;-33.900;151.182;2023-12-20T09:05:57;17.80;90.10
16744;DHT22;71724;-33.900;151.182;2023-12-20T09:08:24;17.80;90.20
16744;DHT22;71724;-33.900;151.182;2023-12-20T09:10:52;17.80;90.20
16744;DHT22;71724;-33.900;151.182;2023-12-20T09:13:19;17.80;90.10
16744;DHT22;71724;-33.900;151.182;2023-12-20T09:15:47;17.70;89.70
16744;DHT22;71724;-33.900;151.182;2023-12-20T09:18:14;17.70;90.00
16744;DHT22;71724;-33.900;151.182;2023-12-20T09:20:42;17.70;89.80
16744;DHT22;71724;-33.900;151.182;2023-12-20T09:23:09;17.80;90.00
16744;DHT22;71724;-33.900;151.182;2023-12-20T09:25:36;17.80;90.10
16744;DHT22;71724;-33.900;151.182;2023-12-20T09:28:04;17.80;89.80
16744;DHT22;71724;-33.900;151.182;2023-12-20T09:30:31;17.80;89.70
16744;DHT22;71724;-33.900;151.182;2023-12-20T09:33:00;17.80;89.80
16744;DHT22;71724;-33.900;151.182;2023-12-20T09:35:28;17.80;90.10
16744;DHT22;71724;-33.900;151.182;2023-12-20T09:37:55;17.90;90.10
16744;DHT22;71724;-33.900;151.182;2023-12-20T09:40:23;17.80;89.70
16744;DHT22;71724;-33.900;151.182;2023-12-20T09:43:05;17.90;90.00
16744;DHT22;71724;-33.900;151.182;2023-12-20T09:45:36;17.80;89.80
16744;DHT22;71724;-33.900;151.182;2023-12-20T09:48:04;17.90;89.90
16744;DHT22;71724;-33.900;151.182;2023-12-20T09:50:32;17.80;89.50
16744;DHT22;71724;-33.900;151.182;2023-12-20T09:53:03;17.80;89.70
16744;DHT22;71724;-33.900;151.182;2023-12-20T09:55:33;17.80;89.70
16744;DHT22;71724;-33.900;151.182;2023-12-20T09:58:01;17.80;89.50
16744;DHT22;71724;-33.900;151.182;2023-12-20T10:00:28;17.70;89.20
16744;DHT22;71724;-33.900;151.182;2023-12-20T10:03:00;17.70;89.20
16744;DHT22;71724;-33.900;151.182;2023-12-20T10:05:30;17.70;89.40
16744;DHT22;71724;-33.900;151.182;2023-12-20T10:07:58;17.70;89.50
16744;DHT22;71724;-33.900;151.182;2023-12-20T10:10:26;17.70;89.10
16744;DHT22;71724;-33.900;151.182;2023-12-20T10:13:11;17.70;89.20
16744;DHT22;71724;-33.900;151.182;2023-12-20T10:15:38;17.70;89.20
16744;DHT22;71724;-33.900;151.182;2023-12-20T10:18:07;17.70;89.00
16744;DHT22;71724;-33.900;151.182;2023-12-20T10:20:35;17.70;88.90
16744;DHT22;71724;-33.900;151.182;2023-12-20T10:23:02;17.70;88.80
16744;DHT22;71724;-33.900;151.182;2023-12-20T10:25:30;17.70;89.00
16744;DHT22;71724;-33.900;151.182;2023-12-20T10:28:13;17.70;88.90
16744;DHT22;71724;-33.900;151.182;2023-12-20T10:30:43;17.70;88.90
16744;DHT22;71724;-33.900;151.182;2023-12-20T10:33:11;17.70;88.60
16744;DHT22;71724;-33.900;151.182;2023-12-20T10:35:39;17.70;88.60
16744;DHT22;71724;-33.900;151.182;2023-12-20T10:38:07;17.60;88.80
16744;DHT22;71724;-33.900;151.182;2023-12-20T10:40:36;17.70;88.60
16744;DHT22;71724;-33.900;151.182;2023-12-20T10:43:04;17.60;88.30
16744;DHT22;71724;-33.900;151.182;2023-12-20T10:45:32;17.60;88.40
16744;DHT22;71724;-33.900;151.182;2023-12-20T10:47:59;17.70;88.70
16744;DHT22;71724;-33.900;151.182;2023-12-20T10:50:29;17.60;88.40
16744;DHT22;71724;-33.900;151.182;2023-12-20T10:52:58;17.60;88.30
16744;DHT22;71724;-33.900;151.182;2023-12-20T10:55:26;17.60;88.50
16744;DHT22;71724;-33.900;151.182;2023-12-20T10:58:01;17.70;88.70
16744;DHT22;71724;-33.900;151.182;2023-12-20T11:00:30;17.70;88.30
16744;DHT22;71724;-33.900;151.182;2023-12-20T11:03:01;17.70;88.60
16744;DHT22;71724;-33.900;151.182;2023-12-20T11:11:35;17.70;87.90
16744;DHT22;71724;-33.900;151.182;2023-12-20T11:14:12;17.70;87.80
16744;DHT22;71724;-33.900;151.182;2023-12-20T11:16:42;17.70;87.70
16744;DHT22;71724;-33.900;151.182;2023-12-20T11:19:11;17.70;87.70
16744;DHT22;71724;-33.900;151.182;2023-12-20T11:21:41;17.70;87.60
16744;DHT22;71724;-33.900;151.182;2023-12-20T11:24:09;17.70;87.30
16744;DHT22;71724;-33.900;151.182;2023-12-20T11:26:36;17.70;87.50
16744;DHT22;71724;-33.900;151.182;2023-12-20T11:29:32;17.70;87.60
16744;DHT22;71724;-33.900;151.182;2023-12-20T11:32:47;17.70;87.40
16744;DHT22;71724;-33.900;151.182;2023-12-20T11:34:51;17.70;87.20
16744;DHT22;71724;-33.900;151.182;2023-12-20T11:37:20;17.70;87.20
16744;DHT22;71724;-33.900;151.182;2023-12-20T11:40:11;17.70;87.30
16744;DHT22;71724;-33.900;151.182;2023-12-20T11:42:43;17.70;87.20
16744;DHT22;71724;-33.900;151.182;2023-12-20T11:45:12;17.70;87.30
16744;DHT22;71724;-33.900;151.182;2023-12-20T11:47:46;17.70;87.40
16744;DHT22;71724;-33.900;151.182;2023-12-20T11:50:14;17.70;87.40
16744;DHT22;71724;-33.900;151.182;2023-12-20T11:52:41;17.70;87.50
16744;DHT22;71724;-33.900;151.182;2023-12-20T11:55:08;17.70;87.30
16744;DHT22;71724;-33.900;151.182;2023-12-20T11:57:36;17.70;87.20
16744;DHT22;71724;-33.900;151.182;2023-12-20T12:00:07;17.70;87.40
16744;DHT22;71724;-33.900;151.182;2023-12-20T12:02:35;17.70;87.30
16744;DHT22;71724;-33.900;151.182;2023-12-20T12:05:03;17.70;87.10
16744;DHT22;71724;-33.900;151.182;2023-12-20T12:07:33;17.60;86.90
16744;DHT22;71724;-33.900;151.182;2023-12-20T12:10:01;17.70;87.00
16744;DHT22;71724;-33.900;151.182;2023-12-20T12:12:30;17.70;86.90
16744;DHT22;71724;-33.900;151.182;2023-12-20T12:14:59;17.70;87.10
16744;DHT22;71724;-33.900;151.182;2023-12-20T12:17:26;17.70;86.70
16744;DHT22;71724;-33.900;151.182;2023-12-20T12:20:03;17.70;86.80
16744;DHT22;71724;-33.900;151.182;2023-12-20T12:22:31;17.60;86.70
16744;DHT22;71724;-33.900;151.182;2023-12-20T12:25:17;17.60;86.80
16744;DHT22;71724;-33.900;151.182;2023-12-20T12:27:44;17.60;86.60
16744;DHT22;71724;-33.900;151.182;2023-12-20T12:30:12;17.70;86.80
16744;DHT22;71724;-33.900;151.182;2023-12-20T12:32:40;17.70;86.60
16744;DHT22;71724;-33.900;151.182;2023-12-20T12:35:08;17.70;86.70
16744;DHT22;71724;-33.900;151.182;2023-12-20T12:37:40;17.70;86.70
16744;DHT22;71724;-33.900;151.182;2023-12-20T12:40:13;17.70;86.80
16744;DHT22;71724;-33.900;151.182;2023-12-20T12:42:41;17.70;86.70
16744;DHT22;71724;-33.900;151.182;2023-12-20T12:45:10;17.70;86.90
16744;DHT22;71724;-33.900;151.182;2023-12-20T12:47:40;17.70;86.90
16744;DHT22;71724;-33.900;151.182;2023-12-20T12:50:08;17.70;86.80
16744;DHT22;71724;-33.900;151.182;2023-12-20T12:52:36;17.70;86.60
16744;DHT22;71724;-33.900;151.182;2023-12-20T12:55:04;17.70;86.60
16744;DHT22;71724;-33.900;151.182;2023-12-20T12:57:32;17.70;86.60
16744;DHT22;71724;-33.900;151.182;2023-12-20T13:00:00;17.70;86.50
16744;DHT22;71724;-33.900;151.182;2023-12-20T13:02:27;17.70;86.50
16744;DHT22;71724;-33.900;151.182;2023-12-20T13:04:54;17.70;86.40
16744;DHT22;71724;-33.900;151.182;2023-12-20T13:07:22;17.70;86.30
16744;DHT22;71724;-33.900;151.182;2023-12-20T13:09:49;17.70;86.40
16744;DHT22;71724;-33.900;151.182;2023-12-20T13:12:20;17.70;86.40
16744;DHT22;71724;-33.900;151.182;2023-12-20T13:14:48;17.80;86.60
16744;DHT22;71724;-33.900;151.182;2023-12-20T13:17:15;17.70;86.60
16744;DHT22;71724;-33.900;151.182;2023-12-20T13:19:43;17.70;86.60
16744;DHT22;71724;-33.900;151.182;2023-12-20T13:22:10;17.70;86.50
16744;DHT22;71724;-33.900;151.182;2023-12-20T13:24:37;17.80;86.60
16744;DHT22;71724;-33.900;151.182;2023-12-20T13:27:05;17.80;86.60
16744;DHT22;71724;-33.900;151.182;2023-12-20T13:29:32;17.70;86.40
16744;DHT22;71724;-33.900;151.182;2023-12-20T13:32:00;17.70;86.60
16744;DHT22;71724;-33.900;151.182;2023-12-20T13:34:27;17.70;86.60
16744;DHT22;71724;-33.900;151.182;2023-12-20T13:36:55;17.80;86.80
16744;DHT22;71724;-33.900;151.182;2023-12-20T13:39:23;17.80;86.60
16744;DHT22;71724;-33.900;151.182;2023-12-20T13:41:50;17.80;86.40
16744;DHT22;71724;-33.900;151.182;2023-12-20T13:44:18;17.80;86.70
16744;DHT22;71724;-33.900;151.182;2023-12-20T13:46:45;17.80;86.60
16744;DHT22;71724;-33.900;151.182;2023-12-20T13:49:13;17.80;86.40
16744;DHT22;71724;-33.900;151.182;2023-12-20T13:51:44;17.70;86.30
16744;DHT22;71724;-33.900;151.182;2023-12-20T13:54:11;17.70;86.40
16744;DHT22;71724;-33.900;151.182;2023-12-20T13:56:39;17.70;86.20
16744;DHT22;71724;-33.900;151.182;2023-12-20T13:59:06;17.70;86.10
16744;DHT22;71724;-33.900;151.182;2023-12-20T14:01:35;17.70;86.30
16744;DHT22;71724;-33.900;151.182;2023-12-20T14:04:02;17.70;86.20
16744;DHT22;71724;-33.900;151.182;2023-12-20T14:06:29;17.70;86.20
16744;DHT22;71724;-33.900;151.182;2023-12-20T14:08:57;17.60;86.20
16744;DHT22;71724;-33.900;151.182;2023-12-20T14:11:27;17.60;86.20
16744;DHT22;71724;-33.900;151.182;2023-12-20T14:13:54;17.60;86.20
16744;DHT22;71724;-33.900;151.182;2023-12-20T14:16:25;17.60;86.40
16744;DHT22;71724;-33.900;151.182;2023-12-20T14:18:52;17.60;86.30
16744;DHT22;71724;-33.900;151.182;2023-12-20T14:21:23;17.60;86.30
16744;DHT22;71724;-33.900;151.182;2023-12-20T14:23:51;17.70;86.60
16744;DHT22;71724;-33.900;151.182;2023-12-20T14:26:19;17.70;86.60
16744;DHT22;71724;-33.900;151.182;2023-12-20T14:28:47;17.70;86.10
16744;DHT22;71724;-33.900;151.182;2023-12-20T14:31:14;17.70;86.10
16744;DHT22;71724;-33.900;151.182;2023-12-20T14:33:41;17.70;86.20
16744;DHT22;71724;-33.900;151.182;2023-12-20T14:36:09;17.70;86.10
16744;DHT22;71724;-33.900;151.182;2023-12-20T14:38:38;17.70;86.20
16744;DHT22;71724;-33.900;151.182;2023-12-20T14:41:06;17.60;86.10
16744;DHT22;71724;-33.900;151.182;2023-12-20T14:43:41;17.60;86.20
16744;DHT22;71724;-33.900;151.182;2023-12-20T14:46:08;17.70;86.20
16744;DHT22;71724;-33.900;151.182;2023-12-20T14:48:36;17.70;86.30
16744;DHT22;71724;-33.900;151.182;2023-12-20T14:51:05;17.70;86.40
16744;DHT22;71724;-33.900;151.182;2023-12-20T14:53:34;17.70;86.40
16744;DHT22;71724;-33.900;151.182;2023-12-20T14:56:05;17.80;86.60
16744;DHT22;71724;-33.900;151.182;2023-12-20T14:58:35;17.80;86.60
16744;DHT22;71724;-33.900;151.182;2023-12-20T15:01:03;17.80;86.10